sensor_id;sensor_type;location;lat;lon;timestamp;pressure;altitude;pressure_sealevel;temperature;humidity
49529;BME280;35423;37.320;-121.762;2023-02-10T00:01:35;100690.22;;;42.47;5.70
49529;BME280;35423;37.320;-121.762;2023-02-10T00:04:00;100689.78;;;42.50;5.79
49529;BME280;35423;37.320;-121.762;2023-02-10T00:06:31;100690.52;;;42.81;5.76
49529;BME280;35423;37.320;-121.762;2023-02-10T00:09:00;100691.99;;;42.67;5.70
49529;BME280;35423;37.320;-121.762;2023-02-10T00:11:24;100695.17;;;42.54;5.66
49529;BME280;35423;37.320;-121.762;2023-02-10T00:13:55;100697.91;;;42.68;5.73
49529;BME280;35423;37.320;-121.762;2023-02-10T00:16:22;100694.86;;;42.01;5.79
49529;BME280;35423;37.320;-121.762;2023-02-10T00:18:49;100694.00;;;42.49;5.74
49529;BME280;35423;37.320;-121.762;2023-02-10T00:21:23;100693.34;;;42.51;5.84
49529;BME280;35423;37.320;-121.762;2023-02-10T00:23:51;100694.83;;;42.39;5.72
49529;BME280;35423;37.320;-121.762;2023-02-10T00:26:25;100694.98;;;42.45;5.89
49529;BME280;35423;37.320;-121.762;2023-02-10T00:28:51;100692.85;;;42.02;5.89
49529;BME280;35423;37.320;-121.762;2023-02-10T00:31:16;100694.05;;;42.08;6.06
49529;BME280;35423;37.320;-121.762;2023-02-10T00:33:50;100697.37;;;41.88;6.12
49529;BME280;35423;37.320;-121.762;2023-02-10T00:36:16;100698.13;;;41.94;6.14
49529;BME280;35423;37.320;-121.762;2023-02-10T00:38:42;100697.99;;;41.50;6.18
49529;BME280;35423;37.320;-121.762;2023-02-10T00:41:08;100700.10;;;41.35;6.25
49529;BME280;35423;37.320;-121.762;2023-02-10T00:43:32;100707.29;;;41.23;6.61
49529;BME280;35423;37.320;-121.762;2023-02-10T00:45:57;100716.62;;;40.88;6.84
49529;BME280;35423;37.320;-121.762;2023-02-10T00:48:23;100724.29;;;40.49;7.08
49529;BME280;35423;37.320;-121.762;2023-02-10T00:50:48;100730.89;;;40.57;7.29
49529;BME280;35423;37.320;-121.762;2023-02-10T00:53:18;100741.11;;;40.15;7.48
49529;BME280;35423;37.320;-121.762;2023-02-10T00:55:43;100745.13;;;39.71;7.59
49529;BME280;35423;37.320;-121.762;2023-02-10T00:58:09;100745.49;;;39.25;7.78
49529;BME280;35423;37.320;-121.762;2023-02-10T01:00:37;100749.82;;;39.11;7.94
49529;BME280;35423;37.320;-121.762;2023-02-10T01:03:05;100748.96;;;38.67;8.19
49529;BME280;35423;37.320;-121.762;2023-02-10T01:05:38;100752.03;;;38.35;8.44
49529;BME280;35423;37.320;-121.762;2023-02-10T01:08:04;100754.23;;;37.94;8.64
49529;BME280;35423;37.320;-121.762;2023-02-10T01:10:31;100760.80;;;37.61;8.86
49529;BME280;35423;37.320;-121.762;2023-02-10T01:12:57;100758.06;;;37.35;9.04
49529;BME280;35423;37.320;-121.762;2023-02-10T01:15:23;100755.21;;;36.72;9.27
49529;BME280;35423;37.320;-121.762;2023-02-10T01:17:50;100752.39;;;36.23;9.63
49529;BME280;35423;37.320;-121.762;2023-02-10T01:20:15;100758.63;;;35.80;9.81
49529;BME280;35423;37.320;-121.762;2023-02-10T01:22:40;100757.29;;;35.42;10.10
49529;BME280;35423;37.320;-121.762;2023-02-10T01:25:07;100760.73;;;34.77;10.29
49529;BME280;35423;37.320;-121.762;2023-02-10T01:27:36;100769.06;;;34.49;10.52
49529;BME280;35423;37.320;-121.762;2023-02-10T01:30:02;100767.79;;;34.29;10.79
49529;BME280;35423;37.320;-121.762;2023-02-10T01:32:32;100766.70;;;33.93;11.06
49529;BME280;35423;37.320;-121.762;2023-02-10T01:34:57;100766.70;;;34.11;11.24
49529;BME280;35423;37.320;-121.762;2023-02-10T01:37:28;100769.16;;;33.79;11.58
49529;BME280;35423;37.320;-121.762;2023-02-10T01:39:53;100771.77;;;33.52;11.86
49529;BME280;35423;37.320;-121.762;2023-02-10T01:42:19;100772.23;;;33.33;12.01
49529;BME280;35423;37.320;-121.762;2023-02-10T01:47:11;100772.32;;;32.69;12.34
49529;BME280;35423;37.320;-121.762;2023-02-10T01:49:42;100776.51;;;32.75;12.51
49529;BME280;35423;37.320;-121.762;2023-02-10T01:52:08;100782.95;;;33.08;12.65
49529;BME280;35423;37.320;-121.762;2023-02-10T01:54:39;100781.43;;;32.57;12.83
49529;BME280;35423;37.320;-121.762;2023-02-10T01:57:00;100779.53;;;32.11;13.00
49529;BME280;35423;37.320;-121.762;2023-02-10T01:59:33;100782.76;;;32.43;13.06
49529;BME280;35423;37.320;-121.762;2023-02-10T02:01:58;100789.00;;;32.28;13.21
49529;BME280;35423;37.320;-121.762;2023-02-10T02:04:26;100792.48;;;32.13;13.33
49529;BME280;35423;37.320;-121.762;2023-02-10T02:06:53;100792.41;;;31.94;13.47
49529;BME280;35423;37.320;-121.762;2023-02-10T02:09:21;100792.07;;;31.70;13.68
49529;BME280;35423;37.320;-121.762;2023-02-10T02:11:53;100792.41;;;31.54;13.70
49529;BME280;35423;37.320;-121.762;2023-02-10T02:14:23;100796.50;;;31.57;13.79
49529;BME280;35423;37.320;-121.762;2023-02-10T02:16:52;100802.33;;;31.37;13.94
49529;BME280;35423;37.320;-121.762;2023-02-10T02:21:40;100809.51;;;30.92;14.29
49529;BME280;35423;37.320;-121.762;2023-02-10T02:26:36;100817.98;;;30.73;14.71
49529;BME280;35423;37.320;-121.762;2023-02-10T02:29:09;100820.97;;;30.75;14.80
49529;BME280;35423;37.320;-121.762;2023-02-10T02:31:45;100825.95;;;30.56;15.01
49529;BME280;35423;37.320;-121.762;2023-02-10T02:34:08;100825.95;;;30.10;15.28
49529;BME280;35423;37.320;-121.762;2023-02-10T02:36:41;100827.73;;;30.44;15.32
49529;BME280;35423;37.320;-121.762;2023-02-10T02:39:11;100824.80;;;30.01;15.46
49529;BME280;35423;37.320;-121.762;2023-02-10T02:41:37;100827.10;;;29.55;15.62
49529;BME280;35423;37.320;-121.762;2023-02-10T02:44:03;100828.65;;;29.58;15.72
49529;BME280;35423;37.320;-121.762;2023-02-10T02:46:34;100829.54;;;29.38;15.86
49529;BME280;35423;37.320;-121.762;2023-02-10T02:49:00;100825.86;;;29.54;15.81
49529;BME280;35423;37.320;-121.762;2023-02-10T02:51:31;100822.49;;;29.38;15.92
49529;BME280;35423;37.320;-121.762;2023-02-10T02:54:08;100819.20;;;29.06;16.11
49529;BME280;35423;37.320;-121.762;2023-02-10T02:56:32;100824.12;;;29.26;16.32
49529;BME280;35423;37.320;-121.762;2023-02-10T02:58:56;100828.76;;;28.50;16.49
49529;BME280;35423;37.320;-121.762;2023-02-10T03:01:25;100827.16;;;28.73;16.71
49529;BME280;35423;37.320;-121.762;2023-02-10T03:03:48;100829.06;;;28.38;16.98
49529;BME280;35423;37.320;-121.762;2023-02-10T03:06:14;100825.81;;;27.84;17.25
49529;BME280;35423;37.320;-121.762;2023-02-10T03:08:43;100825.47;;;27.39;17.47
49529;BME280;35423;37.320;-121.762;2023-02-10T03:11:18;100824.26;;;27.13;17.65
49529;BME280;35423;37.320;-121.762;2023-02-10T03:13:41;100824.69;;;27.08;17.68
49529;BME280;35423;37.320;-121.762;2023-02-10T03:16:07;100823.23;;;27.18;17.83
49529;BME280;35423;37.320;-121.762;2023-02-10T03:18:33;100823.09;;;27.11;17.90
49529;BME280;35423;37.320;-121.762;2023-02-10T03:21:00;100825.07;;;27.05;17.95
49529;BME280;35423;37.320;-121.762;2023-02-10T03:23:25;100828.32;;;27.19;18.03
49529;BME280;35423;37.320;-121.762;2023-02-10T03:25:50;100829.47;;;27.05;18.15
49529;BME280;35423;37.320;-121.762;2023-02-10T03:28:17;100834.39;;;27.18;18.30
49529;BME280;35423;37.320;-121.762;2023-02-10T03:30:47;100837.31;;;26.87;18.42
49529;BME280;35423;37.320;-121.762;2023-02-10T03:33:12;100838.63;;;26.71;18.59
49529;BME280;35423;37.320;-121.762;2023-02-10T03:35:37;100838.79;;;26.54;18.66
49529;BME280;35423;37.320;-121.762;2023-02-10T03:38:17;100840.14;;;26.85;18.82
49529;BME280;35423;37.320;-121.762;2023-02-10T03:40:51;100841.15;;;26.06;18.99
49529;BME280;35423;37.320;-121.762;2023-02-10T03:43:14;100842.77;;;26.07;19.10
49529;BME280;35423;37.320;-121.762;2023-02-10T03:45:42;100844.08;;;25.67;19.19
49529;BME280;35423;37.320;-121.762;2023-02-10T03:48:09;100845.62;;;25.38;19.32
49529;BME280;35423;37.320;-121.762;2023-02-10T03:50:34;100844.11;;;25.81;19.36
49529;BME280;35423;37.320;-121.762;2023-02-10T03:53:05;100845.29;;;25.73;19.39
49529;BME280;35423;37.320;-121.762;2023-02-10T03:55:32;100843.25;;;25.65;19.46
49529;BME280;35423;37.320;-121.762;2023-02-10T03:57:56;100842.01;;;25.54;19.60
49529;BME280;35423;37.320;-121.762;2023-02-10T04:00:29;100842.19;;;25.49;19.60
49529;BME280;35423;37.320;-121.762;2023-02-10T04:02:57;100846.18;;;25.54;19.67
49529;BME280;35423;37.320;-121.762;2023-02-10T04:05:23;100850.30;;;25.56;19.93
49529;BME280;35423;37.320;-121.762;2023-02-10T04:07:50;100848.75;;;25.52;19.88
49529;BME280;35423;37.320;-121.762;2023-02-10T04:10:15;100849.88;;;25.19;19.93
49529;BME280;35423;37.320;-121.762;2023-02-10T04:12:42;100848.66;;;25.33;20.05
49529;BME280;35423;37.320;-121.762;2023-02-10T04:15:11;100850.43;;;25.15;20.26
49529;BME280;35423;37.320;-121.762;2023-02-10T04:17:39;100847.70;;;24.76;20.54
49529;BME280;35423;37.320;-121.762;2023-02-10T04:20:08;100848.33;;;24.14;20.62
49529;BME280;35423;37.320;-121.762;2023-02-10T04:22:32;100849.80;;;24.60;20.55
49529;BME280;35423;37.320;-121.762;2023-02-10T04:25:09;100849.83;;;24.55;20.66
49529;BME280;35423;37.320;-121.762;2023-02-10T04:27:33;100847.39;;;24.41;20.72
49529;BME280;35423;37.320;-121.762;2023-02-10T04:30:00;100853.68;;;24.29;20.79
49529;BME280;35423;37.320;-121.762;2023-02-10T04:32:25;100853.95;;;24.54;20.73
49529;BME280;35423;37.320;-121.762;2023-02-10T04:34:52;100849.43;;;24.55;20.77
49529;BME280;35423;37.320;-121.762;2023-02-10T04:37:21;100845.05;;;24.38;20.68
49529;BME280;35423;37.320;-121.762;2023-02-10T04:39:46;100841.93;;;24.68;20.68
49529;BME280;35423;37.320;-121.762;2023-02-10T04:42:15;100844.80;;;24.23;20.80
49529;BME280;35423;37.320;-121.762;2023-02-10T04:44:42;100842.59;;;24.46;20.79
49529;BME280;35423;37.320;-121.762;2023-02-10T04:47:07;100835.34;;;24.28;20.84
49529;BME280;35423;37.320;-121.762;2023-02-10T04:49:34;100831.12;;;24.39;20.90
49529;BME280;35423;37.320;-121.762;2023-02-10T04:52:05;100828.15;;;24.29;20.96
49529;BME280;35423;37.320;-121.762;2023-02-10T04:54:24;100826.35;;;23.95;21.00
49529;BME280;35423;37.320;-121.762;2023-02-10T04:56:51;100821.13;;;23.91;20.99
49529;BME280;35423;37.320;-121.762;2023-02-10T04:59:17;100817.13;;;24.10;21.04
49529;BME280;35423;37.320;-121.762;2023-02-10T05:01:43;100816.75;;;24.06;21.05
49529;BME280;35423;37.320;-121.762;2023-02-10T05:04:09;100816.68;;;23.76;21.07
49529;BME280;35423;37.320;-121.762;2023-02-10T05:06:40;100817.39;;;23.66;21.30
49529;BME280;35423;37.320;-121.762;2023-02-10T05:09:10;100814.10;;;23.81;21.35
49529;BME280;35423;37.320;-121.762;2023-02-10T05:11:34;100816.61;;;23.75;21.40
49529;BME280;35423;37.320;-121.762;2023-02-10T05:14:02;100819.74;;;23.65;21.50
49529;BME280;35423;37.320;-121.762;2023-02-10T05:16:28;100819.38;;;23.88;21.54
49529;BME280;35423;37.320;-121.762;2023-02-10T05:19:01;100820.23;;;23.52;21.60
49529;BME280;35423;37.320;-121.762;2023-02-10T05:21:26;100817.34;;;23.40;21.64
49529;BME280;35423;37.320;-121.762;2023-02-10T05:23:59;100818.52;;;23.54;21.67
49529;BME280;35423;37.320;-121.762;2023-02-10T05:26:25;100819.10;;;23.17;21.81
49529;BME280;35423;37.320;-121.762;2023-02-10T05:28:54;100816.13;;;23.10;21.86
49529;BME280;35423;37.320;-121.762;2023-02-10T05:31:21;100812.68;;;23.26;21.96
49529;BME280;35423;37.320;-121.762;2023-02-10T05:33:52;100812.32;;;23.20;22.01
49529;BME280;35423;37.320;-121.762;2023-02-10T05:36:13;100815.16;;;23.15;22.12
49529;BME280;35423;37.320;-121.762;2023-02-10T05:38:38;100817.75;;;23.20;22.16
49529;BME280;35423;37.320;-121.762;2023-02-10T05:41:08;100819.29;;;23.08;22.22
49529;BME280;35423;37.320;-121.762;2023-02-10T05:43:35;100815.52;;;22.88;22.37
49529;BME280;35423;37.320;-121.762;2023-02-10T05:46:03;100818.77;;;22.54;22.38
49529;BME280;35423;37.320;-121.762;2023-02-10T05:48:32;100822.65;;;22.67;22.45
49529;BME280;35423;37.320;-121.762;2023-02-10T05:51:00;100821.26;;;22.75;22.53
49529;BME280;35423;37.320;-121.762;2023-02-10T05:53:24;100819.42;;;22.38;22.59
49529;BME280;35423;37.320;-121.762;2023-02-10T05:55:51;100817.75;;;22.29;22.60
49529;BME280;35423;37.320;-121.762;2023-02-10T05:58:17;100817.10;;;22.18;22.67
49529;BME280;35423;37.320;-121.762;2023-02-10T06:00:43;100815.30;;;22.29;22.79
49529;BME280;35423;37.320;-121.762;2023-02-10T06:03:09;100808.76;;;22.00;22.80
49529;BME280;35423;37.320;-121.762;2023-02-10T06:05:37;100809.21;;;22.17;22.86
49529;BME280;35423;37.320;-121.762;2023-02-10T06:08:03;100809.58;;;22.11;22.86
49529;BME280;35423;37.320;-121.762;2023-02-10T06:10:29;100805.59;;;22.03;22.89
49529;BME280;35423;37.320;-121.762;2023-02-10T06:12:54;100802.38;;;21.99;22.93
49529;BME280;35423;37.320;-121.762;2023-02-10T06:15:23;100798.98;;;21.93;23.01
49529;BME280;35423;37.320;-121.762;2023-02-10T06:17:52;100793.54;;;21.90;23.08
49529;BME280;35423;37.320;-121.762;2023-02-10T06:20:15;100791.71;;;21.84;23.13
49529;BME280;35423;37.320;-121.762;2023-02-10T06:22:41;100790.63;;;21.80;23.08
49529;BME280;35423;37.320;-121.762;2023-02-10T06:25:05;100789.56;;;21.71;23.14
49529;BME280;35423;37.320;-121.762;2023-02-10T06:27:35;100788.45;;;21.89;23.15
49529;BME280;35423;37.320;-121.762;2023-02-10T06:29:59;100785.79;;;21.72;23.36
49529;BME280;35423;37.320;-121.762;2023-02-10T06:32:25;100788.22;;;21.34;23.45
49529;BME280;35423;37.320;-121.762;2023-02-10T06:34:58;100789.99;;;21.50;23.51
49529;BME280;35423;37.320;-121.762;2023-02-10T06:37:19;100791.30;;;21.41;23.58
49529;BME280;35423;37.320;-121.762;2023-02-10T06:39:50;100792.25;;;21.28;23.65
49529;BME280;35423;37.320;-121.762;2023-02-10T06:42:19;100789.82;;;21.40;23.63
49529;BME280;35423;37.320;-121.762;2023-02-10T06:44:46;100790.05;;;21.20;23.76
49529;BME280;35423;37.320;-121.762;2023-02-10T06:47:11;100787.85;;;20.87;23.78
49529;BME280;35423;37.320;-121.762;2023-02-10T06:49:40;100785.93;;;21.05;23.80
49529;BME280;35423;37.320;-121.762;2023-02-10T06:52:14;100780.65;;;21.03;23.82
49529;BME280;35423;37.320;-121.762;2023-02-10T06:54:37;100775.47;;;20.79;23.80
49529;BME280;35423;37.320;-121.762;2023-02-10T06:57:04;100776.45;;;20.74;23.77
49529;BME280;35423;37.320;-121.762;2023-02-10T06:59:32;100774.16;;;20.73;23.79
49529;BME280;35423;37.320;-121.762;2023-02-10T07:02:00;100772.88;;;20.93;23.82
49529;BME280;35423;37.320;-121.762;2023-02-10T07:04:26;100770.73;;;21.09;23.89
49529;BME280;35423;37.320;-121.762;2023-02-10T07:06:59;100769.21;;;21.06;23.90
49529;BME280;35423;37.320;-121.762;2023-02-10T07:09:29;100762.96;;;21.01;23.91
49529;BME280;35423;37.320;-121.762;2023-02-10T07:11:55;100761.65;;;20.71;23.98
49529;BME280;35423;37.320;-121.762;2023-02-10T07:14:20;100760.42;;;20.86;24.05
49529;BME280;35423;37.320;-121.762;2023-02-10T07:16:47;100755.51;;;20.78;24.05
49529;BME280;35423;37.320;-121.762;2023-02-10T07:19:14;100752.63;;;20.74;24.07
49529;BME280;35423;37.320;-121.762;2023-02-10T07:21:38;100754.46;;;20.23;24.10
49529;BME280;35423;37.320;-121.762;2023-02-10T07:24:09;100753.11;;;20.69;24.06
49529;BME280;35423;37.320;-121.762;2023-02-10T07:26:35;100747.28;;;20.42;24.03
49529;BME280;35423;37.320;-121.762;2023-02-10T07:29:01;100743.50;;;20.60;24.10
49529;BME280;35423;37.320;-121.762;2023-02-10T07:31:27;100742.87;;;20.52;24.13
49529;BME280;35423;37.320;-121.762;2023-02-10T07:33:58;100745.22;;;20.46;24.19
49529;BME280;35423;37.320;-121.762;2023-02-10T07:36:26;100746.95;;;20.38;24.25
49529;BME280;35423;37.320;-121.762;2023-02-10T07:38:52;100746.78;;;20.34;24.23
49529;BME280;35423;37.320;-121.762;2023-02-10T07:41:18;100746.21;;;20.31;24.28
49529;BME280;35423;37.320;-121.762;2023-02-10T07:43:48;100747.03;;;20.25;24.34
49529;BME280;35423;37.320;-121.762;2023-02-10T07:46:10;100754.06;;;20.23;24.43
49529;BME280;35423;37.320;-121.762;2023-02-10T07:48:38;100756.64;;;20.16;24.45
49529;BME280;35423;37.320;-121.762;2023-02-10T07:51:05;100756.31;;;20.15;24.46
49529;BME280;35423;37.320;-121.762;2023-02-10T07:53:37;100758.13;;;20.33;24.58
49529;BME280;35423;37.320;-121.762;2023-02-10T07:56:04;100756.20;;;20.22;24.74
49529;BME280;35423;37.320;-121.762;2023-02-10T07:58:29;100755.33;;;20.14;24.73
49529;BME280;35423;37.320;-121.762;2023-02-10T08:00:57;100754.40;;;19.81;24.67
49529;BME280;35423;37.320;-121.762;2023-02-10T08:03:22;100752.24;;;19.81;24.67
49529;BME280;35423;37.320;-121.762;2023-02-10T08:05:49;100745.57;;;19.71;24.79
49529;BME280;35423;37.320;-121.762;2023-02-10T08:08:14;100739.27;;;19.86;24.92
49529;BME280;35423;37.320;-121.762;2023-02-10T08:10:40;100738.20;;;19.85;24.88
49529;BME280;35423;37.320;-121.762;2023-02-10T08:13:11;100741.24;;;20.04;24.87
49529;BME280;35423;37.320;-121.762;2023-02-10T08:15:38;100743.05;;;19.73;24.90
49529;BME280;35423;37.320;-121.762;2023-02-10T08:18:15;100745.19;;;19.92;24.91
49529;BME280;35423;37.320;-121.762;2023-02-10T08:20:47;100742.73;;;19.63;24.94
49529;BME280;35423;37.320;-121.762;2023-02-10T08:23:15;100747.07;;;19.80;24.96
49529;BME280;35423;37.320;-121.762;2023-02-10T08:25:40;100748.30;;;19.76;25.09
49529;BME280;35423;37.320;-121.762;2023-02-10T08:28:06;100746.77;;;19.73;25.11
49529;BME280;35423;37.320;-121.762;2023-02-10T08:30:36;100747.21;;;19.68;25.15
49529;BME280;35423;37.320;-121.762;2023-02-10T08:33:03;100746.50;;;19.62;25.18
49529;BME280;35423;37.320;-121.762;2023-02-10T08:35:29;100740.76;;;19.32;25.23
49529;BME280;35423;37.320;-121.762;2023-02-10T08:37:56;100740.33;;;19.57;25.20
49529;BME280;35423;37.320;-121.762;2023-02-10T08:40:23;100738.81;;;19.84;25.17
49529;BME280;35423;37.320;-121.762;2023-02-10T08:42:53;100737.60;;;19.49;25.24
49529;BME280;35423;37.320;-121.762;2023-02-10T08:45:19;100732.25;;;19.36;25.38
49529;BME280;35423;37.320;-121.762;2023-02-10T08:47:45;100729.08;;;19.25;25.44
49529;BME280;35423;37.320;-121.762;2023-02-10T08:50:12;100729.58;;;19.12;25.55
49529;BME280;35423;37.320;-121.762;2023-02-10T08:52:37;100727.77;;;18.99;25.69
49529;BME280;35423;37.320;-121.762;2023-02-10T08:55:12;100725.17;;;19.10;25.93
49529;BME280;35423;37.320;-121.762;2023-02-10T08:57:37;100717.74;;;18.72;26.07
49529;BME280;35423;37.320;-121.762;2023-02-10T09:00:07;100713.72;;;18.79;26.32
49529;BME280;35423;37.320;-121.762;2023-02-10T09:02:31;100709.71;;;18.45;26.34
49529;BME280;35423;37.320;-121.762;2023-02-10T09:04:59;100704.60;;;18.68;26.33
49529;BME280;35423;37.320;-121.762;2023-02-10T09:07:24;100698.69;;;18.84;26.26
49529;BME280;35423;37.320;-121.762;2023-02-10T09:09:49;100694.57;;;18.83;26.26
49529;BME280;35423;37.320;-121.762;2023-02-10T09:12:16;100692.82;;;18.80;26.31
49529;BME280;35423;37.320;-121.762;2023-02-10T09:14:41;100688.13;;;18.77;26.29
49529;BME280;35423;37.320;-121.762;2023-02-10T09:17:07;100688.01;;;18.48;26.29
49529;BME280;35423;37.320;-121.762;2023-02-10T09:19:32;100688.54;;;18.59;26.42
49529;BME280;35423;37.320;-121.762;2023-02-10T09:21:58;100690.32;;;18.52;26.43
49529;BME280;35423;37.320;-121.762;2023-02-10T09:24:26;100692.50;;;18.47;26.46
49529;BME280;35423;37.320;-121.762;2023-02-10T09:26:54;100694.15;;;18.40;26.54
49529;BME280;35423;37.320;-121.762;2023-02-10T09:29:25;100695.25;;;18.51;26.71
49529;BME280;35423;37.320;-121.762;2023-02-10T09:31:54;100693.66;;;18.24;26.74
49529;BME280;35423;37.320;-121.762;2023-02-10T09:34:19;100693.35;;;18.16;26.86
49529;BME280;35423;37.320;-121.762;2023-02-10T09:36:45;100692.19;;;18.07;26.94
49529;BME280;35423;37.320;-121.762;2023-02-10T09:39:11;100695.01;;;18.04;26.91
49529;BME280;35423;37.320;-121.762;2023-02-10T09:41:48;100690.14;;;17.99;26.94
49529;BME280;35423;37.320;-121.762;2023-02-10T09:44:10;100688.29;;;17.95;26.98
49529;BME280;35423;37.320;-121.762;2023-02-10T09:46:38;100689.75;;;17.98;26.93
49529;BME280;35423;37.320;-121.762;2023-02-10T09:49:03;100693.09;;;17.89;27.05
49529;BME280;35423;37.320;-121.762;2023-02-10T09:51:29;100696.55;;;18.07;27.09
49529;BME280;35423;37.320;-121.762;2023-02-10T09:53:48;100692.90;;;17.99;27.21
49529;BME280;35423;37.320;-121.762;2023-02-10T09:56:17;100690.97;;;17.70;27.24
49529;BME280;35423;37.320;-121.762;2023-02-10T09:58:43;100686.50;;;17.82;27.31
49529;BME280;35423;37.320;-121.762;2023-02-10T10:01:16;100684.61;;;17.48;27.44
49529;BME280;35423;37.320;-121.762;2023-02-10T10:03:47;100680.53;;;17.67;27.42
49529;BME280;35423;37.320;-121.762;2023-02-10T10:06:16;100677.32;;;17.37;27.51
49529;BME280;35423;37.320;-121.762;2023-02-10T10:08:44;100670.31;;;17.49;27.59
49529;BME280;35423;37.320;-121.762;2023-02-10T10:11:04;100668.22;;;17.45;27.55
49529;BME280;35423;37.320;-121.762;2023-02-10T10:13:27;100665.64;;;17.37;27.60
49529;BME280;35423;37.320;-121.762;2023-02-10T10:16:02;100663.15;;;17.28;27.70
49529;BME280;35423;37.320;-121.762;2023-02-10T10:18:21;100664.09;;;17.49;27.77
49529;BME280;35423;37.320;-121.762;2023-02-10T10:20:52;100661.40;;;17.48;27.72
49529;BME280;35423;37.320;-121.762;2023-02-10T10:23:28;100660.02;;;17.41;27.71
49529;BME280;35423;37.320;-121.762;2023-02-10T10:25:52;100657.17;;;17.37;27.70
49529;BME280;35423;37.320;-121.762;2023-02-10T10:28:09;100656.32;;;17.32;27.75
49529;BME280;35423;37.320;-121.762;2023-02-10T10:30:35;100656.56;;;17.27;27.81
49529;BME280;35423;37.320;-121.762;2023-02-10T10:33:00;100659.67;;;17.26;27.75
49529;BME280;35423;37.320;-121.762;2023-02-10T10:35:33;100659.97;;;17.19;27.83
49529;BME280;35423;37.320;-121.762;2023-02-10T10:37:50;100663.25;;;17.15;27.87
49529;BME280;35423;37.320;-121.762;2023-02-10T10:40:19;100665.76;;;17.12;27.86
49529;BME280;35423;37.320;-121.762;2023-02-10T10:42:44;100668.18;;;17.08;27.85
49529;BME280;35423;37.320;-121.762;2023-02-10T10:45:13;100671.53;;;16.99;27.97
49529;BME280;35423;37.320;-121.762;2023-02-10T10:47:41;100668.28;;;16.96;27.99
49529;BME280;35423;37.320;-121.762;2023-02-10T10:49:58;100667.27;;;16.90;28.03
49529;BME280;35423;37.320;-121.762;2023-02-10T10:52:39;100664.13;;;17.09;28.04
49529;BME280;35423;37.320;-121.762;2023-02-10T10:54:57;100662.44;;;16.81;28.09
49529;BME280;35423;37.320;-121.762;2023-02-10T10:57:31;100663.13;;;16.78;28.13
49529;BME280;35423;37.320;-121.762;2023-02-10T11:00:05;100669.33;;;16.70;28.22
49529;BME280;35423;37.320;-121.762;2023-02-10T11:02:29;100674.07;;;17.02;28.40
49529;BME280;35423;37.320;-121.762;2023-02-10T11:05:00;100672.94;;;16.46;28.55
49529;BME280;35423;37.320;-121.762;2023-02-10T11:07:23;100672.60;;;16.30;28.69
49529;BME280;35423;37.320;-121.762;2023-02-10T11:09:51;100674.11;;;16.20;28.71
49529;BME280;35423;37.320;-121.762;2023-02-10T11:12:20;100679.36;;;16.12;28.69
49529;BME280;35423;37.320;-121.762;2023-02-10T11:14:40;100679.40;;;16.28;28.72
49529;BME280;35423;37.320;-121.762;2023-02-10T11:17:16;100684.74;;;15.98;28.77
49529;BME280;35423;37.320;-121.762;2023-02-10T11:19:40;100684.96;;;16.42;28.72
49529;BME280;35423;37.320;-121.762;2023-02-10T11:22:13;100686.70;;;16.44;28.69
49529;BME280;35423;37.320;-121.762;2023-02-10T11:24:36;100689.85;;;16.41;28.73
49529;BME280;35423;37.320;-121.762;2023-02-10T11:27:04;100690.99;;;16.35;28.81
49529;BME280;35423;37.320;-121.762;2023-02-10T11:29:31;100687.29;;;16.25;28.93
49529;BME280;35423;37.320;-121.762;2023-02-10T11:31:54;100687.49;;;16.23;28.97
49529;BME280;35423;37.320;-121.762;2023-02-10T11:34:24;100684.99;;;15.97;28.97
49529;BME280;35423;37.320;-121.762;2023-02-10T11:36:49;100686.26;;;16.16;28.99
49529;BME280;35423;37.320;-121.762;2023-02-10T11:39:22;100687.23;;;16.12;28.99
49529;BME280;35423;37.320;-121.762;2023-02-10T11:41:40;100684.16;;;16.07;29.09
49529;BME280;35423;37.320;-121.762;2023-02-10T11:46:38;100681.40;;;15.91;29.25
49529;BME280;35423;37.320;-121.762;2023-02-10T11:51:31;100685.54;;;15.78;29.43
49529;BME280;35423;37.320;-121.762;2023-02-10T11:53:59;100685.47;;;15.67;29.48
49529;BME280;35423;37.320;-121.762;2023-02-10T11:56:29;100684.09;;;15.63;29.43
49529;BME280;35423;37.320;-121.762;2023-02-10T11:58:59;100685.95;;;15.83;29.48
49529;BME280;35423;37.320;-121.762;2023-02-10T12:01:33;100690.90;;;15.81;29.42
49529;BME280;35423;37.320;-121.762;2023-02-10T12:03:59;100689.72;;;15.74;29.50
49529;BME280;35423;37.320;-121.762;2023-02-10T12:06:29;100691.70;;;15.45;29.46
49529;BME280;35423;37.320;-121.762;2023-02-10T12:08:54;100692.08;;;15.37;29.53
49529;BME280;35423;37.320;-121.762;2023-02-10T12:11:21;100691.79;;;15.30;29.61
49529;BME280;35423;37.320;-121.762;2023-02-10T12:13:48;100692.68;;;15.45;29.77
49529;BME280;35423;37.320;-121.762;2023-02-10T12:16:17;100692.12;;;15.41;29.67
49529;BME280;35423;37.320;-121.762;2023-02-10T12:18:45;100695.15;;;15.03;29.83
49529;BME280;35423;37.320;-121.762;2023-02-10T12:21:13;100693.79;;;14.97;29.87
49529;BME280;35423;37.320;-121.762;2023-02-10T12:23:46;100693.21;;;15.39;29.92
49529;BME280;35423;37.320;-121.762;2023-02-10T12:26:06;100693.94;;;15.15;29.87
49529;BME280;35423;37.320;-121.762;2023-02-10T12:28:37;100694.83;;;15.41;29.79
49529;BME280;35423;37.320;-121.762;2023-02-10T12:31:01;100692.86;;;15.16;29.77
49529;BME280;35423;37.320;-121.762;2023-02-10T12:33:40;100693.03;;;15.32;29.85